BGB12 -KSAN
Flight info
| Callsign | BGB12 |
|---|---|
| Flight time | N/A |
| Altitude | VFR |
| Route | |
| Aircraft | P28B/L-VGD/C |
Departure
| Time | N/A |
|---|---|
| Airport | - |
Arrival
| Time | 2026-05-04 19:11 |
|---|---|
| Airport | San Diego International Airport (KSAN) |
| Time | Latitude | Longitude | Altitude | Speed | Heading |
|---|---|---|---|---|---|
| 2026-05-04 19:11 | 32.73358 | -117.17951 | 23 ft | 0 kts | 194° |
| 2026-05-04 19:15 | 32.73343 | -117.17955 | 23 ft | 7 kts | 196° |
| 2026-05-04 19:15 | 32.73261 | -117.17980 | 20 ft | 10 kts | 180° |
| 2026-05-04 19:15 | 32.73223 | -117.17944 | 18 ft | 12 kts | 108° |
| 2026-05-04 19:16 | 32.73201 | -117.17846 | 20 ft | 13 kts | 106° |
| 2026-05-04 19:16 | 32.73174 | -117.17738 | 21 ft | 15 kts | 104° |
| 2026-05-04 19:16 | 32.73146 | -117.17621 | 20 ft | 15 kts | 109° |
| 2026-05-04 19:16 | 32.73096 | -117.17551 | 20 ft | 2 kts | 147° |
| 2026-05-04 19:17 | 32.73093 | -117.17549 | 20 ft | 5 kts | 148° |
| 2026-05-04 19:17 | 32.73031 | -117.17564 | 20 ft | 15 kts | 269° |
| 2026-05-04 19:18 | 32.73062 | -117.17761 | 19 ft | 26 kts | 286° |
| 2026-05-04 19:18 | 32.73104 | -117.17933 | 17 ft | 20 kts | 286° |
| 2026-05-04 19:18 | 32.73139 | -117.18082 | 18 ft | 17 kts | 285° |
| 2026-05-04 19:18 | 32.73189 | -117.18284 | 22 ft | 47 kts | 285° |
| 2026-05-04 19:19 | 32.73311 | -117.18738 | 179 ft | 63 kts | 288° |
| 2026-05-04 19:19 | 32.73455 | -117.19223 | 456 ft | 61 kts | 286° |
| 2026-05-04 19:19 | 32.73553 | -117.19723 | 694 ft | 62 kts | 284° |
| 2026-05-04 19:19 | 32.73660 | -117.20230 | 930 ft | 63 kts | 284° |
| 2026-05-04 19:20 | 32.73863 | -117.20755 | 1002 ft | 82 kts | 315° |
| 2026-05-04 19:20 | 32.74509 | -117.20926 | 1016 ft | 110 kts | 359° |
| 2026-05-04 19:20 | 32.75223 | -117.20682 | 1017 ft | 103 kts | 15° |
| 2026-05-04 19:20 | 32.75811 | -117.20282 | 1035 ft | 99 kts | 51° |
| 2026-05-04 19:21 | 32.75872 | -117.19473 | 1018 ft | 102 kts | 102° |
| 2026-05-04 19:21 | 32.75667 | -117.18644 | 979 ft | 109 kts | 105° |
| 2026-05-04 19:21 | 32.75400 | -117.17788 | 933 ft | 113 kts | 113° |
| 2026-05-04 19:21 | 32.75176 | -117.16921 | 982 ft | 104 kts | 96° |
| 2026-05-04 19:22 | 32.75077 | -117.16056 | 913 ft | 97 kts | 96° |
| 2026-05-04 19:22 | 32.74682 | -117.15537 | 835 ft | 78 kts | 175° |
| 2026-05-04 19:22 | 32.74200 | -117.15625 | 706 ft | 73 kts | 206° |
| 2026-05-04 19:22 | 32.73756 | -117.15822 | 610 ft | 69 kts | 210° |
| 2026-05-04 19:23 | 32.73314 | -117.16125 | 518 ft | 76 kts | 223° |
| 2026-05-04 19:23 | 32.72921 | -117.16439 | 391 ft | 58 kts | 240° |
| 2026-05-04 19:23 | 32.72889 | -117.16905 | 276 ft | 54 kts | 277° |
| 2026-05-04 19:23 | 32.72985 | -117.17354 | 161 ft | 55 kts | 277° |
| 2026-05-04 19:24 | 32.73087 | -117.17815 | 104 ft | 56 kts | 281° |
| 2026-05-04 19:24 | 32.73181 | -117.18225 | 25 ft | 44 kts | 281° |
| 2026-05-04 19:24 | 32.73255 | -117.18560 | 27 ft | 55 kts | 285° |
| 2026-05-04 19:24 | 32.73380 | -117.19082 | 233 ft | 65 kts | 289° |
| 2026-05-04 19:25 | 32.73505 | -117.19560 | 549 ft | 61 kts | 288° |
| 2026-05-04 19:25 | 32.73633 | -117.20053 | 814 ft | 65 kts | 284° |
| 2026-05-04 19:25 | 32.73752 | -117.20583 | 1046 ft | 75 kts | 284° |
| 2026-05-04 19:25 | 32.74167 | -117.21015 | 1058 ft | 97 kts | 344° |
| 2026-05-04 19:26 | 32.74870 | -117.20849 | 1025 ft | 109 kts | 16° |
| 2026-05-04 19:26 | 32.75556 | -117.20496 | 1006 ft | 105 kts | 29° |
| 2026-05-04 19:26 | 32.75869 | -117.19723 | 915 ft | 111 kts | 90° |
| 2026-05-04 19:26 | 32.75701 | -117.18858 | 957 ft | 103 kts | 102° |
| 2026-05-04 19:27 | 32.75535 | -117.18040 | 955 ft | 99 kts | 103° |
| 2026-05-04 19:27 | 32.75366 | -117.17231 | 936 ft | 105 kts | 103° |
| 2026-05-04 19:27 | 32.75199 | -117.16401 | 1019 ft | 101 kts | 97° |
| 2026-05-04 19:27 | 32.75065 | -117.15581 | 1019 ft | 100 kts | 100° |
| 2026-05-04 19:28 | 32.74911 | -117.14754 | 1000 ft | 103 kts | 98° |
| 2026-05-04 19:28 | 32.74751 | -117.13917 | 1006 ft | 102 kts | 100° |
| 2026-05-04 19:28 | 32.74588 | -117.13085 | 991 ft | 106 kts | 103° |
| 2026-05-04 19:28 | 32.74429 | -117.12231 | 982 ft | 105 kts | 101° |
| 2026-05-04 19:29 | 32.74274 | -117.11425 | 1016 ft | 99 kts | 127° |
| 2026-05-04 19:29 | 32.73690 | -117.11173 | 1032 ft | 92 kts | 188° |
| 2026-05-04 19:29 | 32.73061 | -117.11222 | 1062 ft | 90 kts | 190° |
| 2026-05-04 19:29 | 32.72471 | -117.11397 | 1129 ft | 82 kts | 225° |
| 2026-05-04 19:30 | 32.72269 | -117.12000 | 1137 ft | 78 kts | 261° |
| 2026-05-04 19:30 | 32.72206 | -117.12646 | 1144 ft | 81 kts | 269° |
| 2026-05-04 19:30 | 32.72223 | -117.13338 | 1080 ft | 79 kts | 277° |
| 2026-05-04 19:30 | 32.72300 | -117.13926 | 969 ft | 68 kts | 280° |
| 2026-05-04 19:31 | 32.72390 | -117.14477 | 763 ft | 67 kts | 279° |
| 2026-05-04 19:31 | 32.72473 | -117.14984 | 646 ft | 60 kts | 275° |
| 2026-05-04 19:31 | 32.72546 | -117.15475 | 527 ft | 61 kts | 277° |
| 2026-05-04 19:31 | 32.72645 | -117.15969 | 405 ft | 61 kts | 277° |
| 2026-05-04 19:32 | 32.72774 | -117.16493 | 304 ft | 64 kts | 285° |
| 2026-05-04 19:32 | 32.72890 | -117.16993 | 258 ft | 61 kts | 285° |
| 2026-05-04 19:32 | 32.72989 | -117.17434 | 127 ft | 53 kts | 281° |
| 2026-05-04 19:32 | 32.73096 | -117.17887 | 63 ft | 58 kts | 284° |
| 2026-05-04 19:33 | 32.73189 | -117.18275 | 21 ft | 38 kts | 284° |
| 2026-05-04 19:33 | 32.73229 | -117.18459 | 20 ft | 16 kts | 283° |
| 2026-05-04 19:33 | 32.73248 | -117.18562 | 21 ft | 14 kts | 290° |
| 2026-05-04 19:33 | 32.73331 | -117.18867 | 43 ft | 59 kts | 290° |
| 2026-05-04 19:34 | 32.73479 | -117.19379 | 247 ft | 70 kts | 286° |
| 2026-05-04 19:34 | 32.73529 | -117.19652 | 394 ft | 68 kts | 283° |
| 2026-05-04 19:34 | 32.73626 | -117.20161 | 764 ft | 64 kts | 281° |
| 2026-05-04 19:34 | 32.73767 | -117.20679 | 1053 ft | 77 kts | 311° |
| 2026-05-04 19:35 | 32.74428 | -117.20707 | 1152 ft | 113 kts | 9° |
| 2026-05-04 19:35 | 32.75195 | -117.20444 | 1218 ft | 111 kts | 13° |
| 2026-05-04 19:35 | 32.75894 | -117.20220 | 1421 ft | 98 kts | 4° |
| 2026-05-04 19:35 | 32.76461 | -117.19702 | 1321 ft | 111 kts | 61° |
| 2026-05-04 19:36 | 32.76465 | -117.18778 | 1230 ft | 116 kts | 102° |
| 2026-05-04 19:36 | 32.76297 | -117.17870 | 1111 ft | 108 kts | 101° |
| 2026-05-04 19:36 | 32.76113 | -117.17063 | 1048 ft | 97 kts | 98° |
| 2026-05-04 19:36 | 32.76039 | -117.16208 | 1001 ft | 111 kts | 94° |
| 2026-05-04 19:37 | 32.75957 | -117.15300 | 988 ft | 107 kts | 98° |
| 2026-05-04 19:37 | 32.75432 | -117.15026 | 815 ft | 83 kts | 194° |
| 2026-05-04 19:37 | 32.74870 | -117.15135 | 704 ft | 78 kts | 201° |
| 2026-05-04 19:37 | 32.74366 | -117.15315 | 621 ft | 74 kts | 207° |
| 2026-05-04 19:38 | 32.73845 | -117.15495 | 701 ft | 80 kts | 205° |
| 2026-05-04 19:38 | 32.73303 | -117.15620 | 611 ft | 78 kts | 205° |
| 2026-05-04 19:38 | 32.72996 | -117.16068 | 433 ft | 74 kts | 253° |
| 2026-05-04 19:38 | 32.72930 | -117.16581 | 354 ft | 58 kts | 268° |
| 2026-05-04 19:39 | 32.72956 | -117.17061 | 230 ft | 57 kts | 278° |
| 2026-05-04 19:39 | 32.73015 | -117.17507 | 118 ft | 56 kts | 283° |
| 2026-05-04 19:39 | 32.73113 | -117.17950 | 48 ft | 54 kts | 283° |
| 2026-05-04 19:39 | 32.73199 | -117.18330 | 22 ft | 39 kts | 285° |
| 2026-05-04 19:40 | 32.73307 | -117.18736 | 121 ft | 61 kts | 288° |
| 2026-05-04 19:40 | 32.73432 | -117.19233 | 399 ft | 65 kts | 283° |
| 2026-05-04 19:40 | 32.73541 | -117.19794 | 681 ft | 70 kts | 287° |
| 2026-05-04 19:40 | 32.73844 | -117.20262 | 870 ft | 97 kts | 352° |
| 2026-05-04 19:41 | 32.74537 | -117.20002 | 1048 ft | 105 kts | 13° |
| 2026-05-04 19:41 | 32.75178 | -117.19644 | 1147 ft | 107 kts | 50° |
| 2026-05-04 19:41 | 32.75187 | -117.18742 | 1072 ft | 116 kts | 101° |
| 2026-05-04 19:41 | 32.74976 | -117.17803 | 1035 ft | 122 kts | 103° |
| 2026-05-04 19:42 | 32.74815 | -117.17133 | 1066 ft | 126 kts | 106° |
| 2026-05-04 19:42 | 32.74595 | -117.16139 | 1073 ft | 123 kts | 100° |
| 2026-05-04 19:42 | 32.74398 | -117.15179 | 1026 ft | 113 kts | 104° |
| 2026-05-04 19:42 | 32.74235 | -117.14294 | 1049 ft | 114 kts | 108° |
| 2026-05-04 19:43 | 32.73597 | -117.13787 | 870 ft | 111 kts | 176° |
| 2026-05-04 19:43 | 32.72910 | -117.13891 | 735 ft | 87 kts | 211° |
| 2026-05-04 19:43 | 32.72521 | -117.14315 | 762 ft | 82 kts | 260° |
| 2026-05-04 19:43 | 32.72520 | -117.14890 | 591 ft | 63 kts | 274° |
| 2026-05-04 19:44 | 32.72600 | -117.15454 | 494 ft | 65 kts | 281° |
| 2026-05-04 19:44 | 32.72686 | -117.15991 | 406 ft | 68 kts | 279° |
| 2026-05-04 19:44 | 32.72803 | -117.16527 | 301 ft | 65 kts | 283° |
| 2026-05-04 19:44 | 32.72922 | -117.17064 | 187 ft | 63 kts | 283° |
| 2026-05-04 19:45 | 32.73013 | -117.17520 | 59 ft | 57 kts | 282° |
| 2026-05-04 19:45 | 32.73118 | -117.17979 | 47 ft | 57 kts | 283° |
| 2026-05-04 19:45 | 32.73212 | -117.18360 | 24 ft | 38 kts | 284° |
| 2026-05-04 19:45 | 32.73274 | -117.18630 | 22 ft | 44 kts | 285° |
| 2026-05-04 19:46 | 32.73379 | -117.19081 | 180 ft | 61 kts | 289° |
| 2026-05-04 19:46 | 32.73493 | -117.19566 | 538 ft | 57 kts | 284° |
| 2026-05-04 19:46 | 32.73626 | -117.20036 | 919 ft | 59 kts | 289° |
| 2026-05-04 19:46 | 32.74010 | -117.20320 | 1104 ft | 106 kts | 9° |
| 2026-05-04 19:47 | 32.74761 | -117.19987 | 1113 ft | 116 kts | 13° |
| 2026-05-04 19:47 | 32.75538 | -117.19673 | 1022 ft | 115 kts | 22° |
| 2026-05-04 19:47 | 32.75774 | -117.18869 | 1068 ft | 111 kts | 114° |
| 2026-05-04 19:47 | 32.75332 | -117.18206 | 1112 ft | 103 kts | 101° |
| 2026-05-04 19:48 | 32.75143 | -117.17380 | 1083 ft | 104 kts | 105° |
| 2026-05-04 19:48 | 32.74892 | -117.16620 | 985 ft | 96 kts | 126° |
| 2026-05-04 19:48 | 32.74315 | -117.16412 | 832 ft | 89 kts | 187° |
| 2026-05-04 19:48 | 32.73722 | -117.16496 | 637 ft | 82 kts | 197° |
| 2026-05-04 19:49 | 32.73214 | -117.16738 | 446 ft | 73 kts | 216° |
| 2026-05-04 19:49 | 32.73013 | -117.17209 | 235 ft | 64 kts | 268° |
| 2026-05-04 19:49 | 32.73058 | -117.17692 | 86 ft | 57 kts | 281° |
| 2026-05-04 19:49 | 32.73152 | -117.18116 | 24 ft | 52 kts | 282° |
| 2026-05-04 19:50 | 32.73247 | -117.18519 | 32 ft | 60 kts | 285° |
| 2026-05-04 19:50 | 32.73375 | -117.19024 | 297 ft | 64 kts | 285° |
| 2026-05-04 19:50 | 32.73477 | -117.19524 | 670 ft | 61 kts | 285° |
| 2026-05-04 19:50 | 32.73618 | -117.20025 | 1062 ft | 64 kts | 289° |
| 2026-05-04 19:51 | 32.73946 | -117.20427 | 1172 ft | 103 kts | 0° |
| 2026-05-04 19:51 | 32.74694 | -117.20182 | 1116 ft | 114 kts | 13° |
| 2026-05-04 19:51 | 32.75083 | -117.19432 | 1063 ft | 125 kts | 101° |
| 2026-05-04 19:51 | 32.74867 | -117.18460 | 1008 ft | 121 kts | 104° |
| 2026-05-04 19:52 | 32.74646 | -117.17526 | 994 ft | 108 kts | 105° |
| 2026-05-04 19:52 | 32.74289 | -117.16875 | 861 ft | 89 kts | 172° |
| 2026-05-04 19:52 | 32.73728 | -117.16958 | 660 ft | 82 kts | 200° |
| 2026-05-04 19:52 | 32.73177 | -117.17138 | 419 ft | 80 kts | 205° |
| 2026-05-04 19:53 | 32.73031 | -117.17590 | 209 ft | 60 kts | 281° |
| 2026-05-04 19:53 | 32.73133 | -117.18040 | 33 ft | 52 kts | 284° |
| 2026-05-04 19:53 | 32.73212 | -117.18383 | 21 ft | 47 kts | 286° |
| 2026-05-04 19:53 | 32.73337 | -117.18858 | 238 ft | 58 kts | 287° |
| 2026-05-04 19:54 | 32.73440 | -117.19343 | 534 ft | 63 kts | 287° |
| 2026-05-04 19:54 | 32.73589 | -117.19839 | 840 ft | 69 kts | 305° |
| 2026-05-04 19:54 | 32.74171 | -117.19836 | 967 ft | 96 kts | 6° |
| 2026-05-04 19:54 | 32.74828 | -117.19603 | 1003 ft | 102 kts | 27° |
| 2026-05-04 19:55 | 32.75089 | -117.18800 | 1002 ft | 116 kts | 98° |
| 2026-05-04 19:55 | 32.74881 | -117.17914 | 1029 ft | 110 kts | 105° |
| 2026-05-04 19:55 | 32.74493 | -117.17151 | 944 ft | 103 kts | 160° |
| 2026-05-04 19:55 | 32.73893 | -117.17179 | 728 ft | 83 kts | 202° |
| 2026-05-04 19:56 | 32.73354 | -117.17434 | 465 ft | 84 kts | 211° |
| 2026-05-04 19:56 | 32.73121 | -117.17911 | 125 ft | 66 kts | 274° |
| 2026-05-04 19:56 | 32.73212 | -117.18364 | 24 ft | 46 kts | 284° |
| 2026-05-04 19:56 | 32.73286 | -117.18697 | 21 ft | 54 kts | 286° |
| 2026-05-04 19:57 | 32.73391 | -117.19166 | 260 ft | 61 kts | 283° |
| 2026-05-04 19:57 | 32.73581 | -117.19601 | 542 ft | 69 kts | 340° |
| 2026-05-04 19:57 | 32.74111 | -117.19426 | 822 ft | 82 kts | 12° |
| 2026-05-04 19:57 | 32.74563 | -117.19068 | 1006 ft | 98 kts | 85° |
| 2026-05-04 19:58 | 32.74436 | -117.18257 | 1003 ft | 105 kts | 99° |
| 2026-05-04 19:58 | 32.74277 | -117.17370 | 962 ft | 112 kts | 100° |
| 2026-05-04 19:58 | 32.74328 | -117.16535 | 1027 ft | 99 kts | 22° |
| 2026-05-04 19:58 | 32.74679 | -117.16906 | 1021 ft | 91 kts | 254° |
| 2026-05-04 19:59 | 32.74092 | -117.17010 | 1018 ft | 115 kts | 129° |
| 2026-05-04 19:59 | 32.74029 | -117.16102 | 1033 ft | 108 kts | 96° |
| 2026-05-04 19:59 | 32.73947 | -117.15251 | 1020 ft | 99 kts | 94° |
| 2026-05-04 19:59 | 32.73879 | -117.14421 | 1045 ft | 105 kts | 94° |
| 2026-05-04 20:00 | 32.73672 | -117.13600 | 1090 ft | 110 kts | 140° |
| 2026-05-04 20:00 | 32.72999 | -117.13458 | 1008 ft | 98 kts | 201° |
| 2026-05-04 20:00 | 32.72388 | -117.13722 | 940 ft | 96 kts | 196° |
| 2026-05-04 20:00 | 32.72086 | -117.14151 | 1000 ft | 81 kts | 294° |
| 2026-05-04 20:01 | 32.72300 | -117.14723 | 880 ft | 73 kts | 292° |
| 2026-05-04 20:01 | 32.72460 | -117.15247 | 786 ft | 66 kts | 284° |
| 2026-05-04 20:01 | 32.72598 | -117.15771 | 578 ft | 69 kts | 278° |
| 2026-05-04 20:01 | 32.72712 | -117.16273 | 432 ft | 59 kts | 279° |
| 2026-05-04 20:02 | 32.72835 | -117.16729 | 334 ft | 55 kts | 281° |
| 2026-05-04 20:02 | 32.72937 | -117.17188 | 171 ft | 59 kts | 280° |
| 2026-05-04 20:02 | 32.73038 | -117.17631 | 82 ft | 55 kts | 281° |
| 2026-05-04 20:02 | 32.73133 | -117.18042 | 26 ft | 46 kts | 278° |
| 2026-05-04 20:03 | 32.73203 | -117.18345 | 19 ft | 39 kts | 284° |
| 2026-05-04 20:03 | 32.73316 | -117.18776 | 133 ft | 63 kts | 283° |
| 2026-05-04 20:03 | 32.73440 | -117.19273 | 404 ft | 65 kts | 284° |
| 2026-05-04 20:03 | 32.73815 | -117.19572 | 656 ft | 86 kts | 6° |
| 2026-05-04 20:04 | 32.74347 | -117.19338 | 1006 ft | 85 kts | 16° |
| 2026-05-04 20:04 | 32.74910 | -117.18990 | 1083 ft | 103 kts | 51° |
| 2026-05-04 20:04 | 32.74824 | -117.18122 | 1060 ft | 108 kts | 108° |
| 2026-05-04 20:04 | 32.74639 | -117.17231 | 1054 ft | 116 kts | 99° |
| 2026-05-04 20:05 | 32.74321 | -117.16401 | 998 ft | 103 kts | 149° |
| 2026-05-04 20:05 | 32.73727 | -117.16245 | 845 ft | 80 kts | 190° |
| 2026-05-04 20:05 | 32.73214 | -117.16290 | 739 ft | 69 kts | 204° |
| 2026-05-04 20:05 | 32.72946 | -117.16685 | 561 ft | 65 kts | 256° |
| 2026-05-04 20:06 | 32.72961 | -117.17204 | 296 ft | 61 kts | 256° |
| 2026-05-04 20:06 | 32.73046 | -117.17665 | 85 ft | 51 kts | 281° |
| 2026-05-04 20:06 | 32.73143 | -117.18075 | 21 ft | 48 kts | 281° |
| 2026-05-04 20:06 | 32.73227 | -117.18442 | 19 ft | 61 kts | 285° |
| 2026-05-04 20:07 | 32.73369 | -117.18948 | 276 ft | 65 kts | 284° |
| 2026-05-04 20:07 | 32.73517 | -117.19461 | 543 ft | 66 kts | 286° |
| 2026-05-04 20:07 | 32.73663 | -117.19981 | 877 ft | 67 kts | 284° |
| 2026-05-04 20:07 | 32.74031 | -117.20336 | 988 ft | 99 kts | 7° |
| 2026-05-04 20:08 | 32.74710 | -117.20134 | 965 ft | 103 kts | 9° |
| 2026-05-04 20:08 | 32.75308 | -117.19719 | 970 ft | 108 kts | 55° |
| 2026-05-04 20:08 | 32.75304 | -117.18869 | 981 ft | 101 kts | 103° |
| 2026-05-04 20:08 | 32.75157 | -117.18078 | 938 ft | 95 kts | 104° |
| 2026-05-04 20:09 | 32.74999 | -117.17334 | 877 ft | 90 kts | 103° |
| 2026-05-04 20:09 | 32.74829 | -117.16897 | 819 ft | 89 kts | 139° |
| 2026-05-04 20:09 | 32.74257 | -117.16779 | 683 ft | 85 kts | 192° |
| 2026-05-04 20:09 | 32.73717 | -117.16898 | 564 ft | 73 kts | 201° |
| 2026-05-04 20:10 | 32.73244 | -117.17102 | 406 ft | 71 kts | 206° |
| 2026-05-04 20:10 | 32.73028 | -117.17517 | 175 ft | 61 kts | 265° |
| 2026-05-04 20:10 | 32.73119 | -117.17980 | 31 ft | 52 kts | 280° |
| 2026-05-04 20:10 | 32.73197 | -117.18320 | 20 ft | 32 kts | 290° |
| 2026-05-04 20:11 | 32.73259 | -117.18430 | 19 ft | 10 kts | 343° |
| 2026-05-04 20:11 | 32.73309 | -117.18428 | 19 ft | 5 kts | 15° |
| 2026-05-04 20:11 | 32.73310 | -117.18427 | 19 ft | 0 kts | 15° |
| 2026-05-04 20:12 | 32.73328 | -117.18417 | 20 ft | 0 kts | 45° |
| 2026-05-04 20:12 | 32.73330 | -117.18412 | 20 ft | 8 kts | 70° |
| 2026-05-04 20:12 | 32.73305 | -117.18283 | 18 ft | 19 kts | 105° |
| 2026-05-04 20:12 | 32.73273 | -117.18142 | 19 ft | 17 kts | 102° |
| 2026-05-04 20:13 | 32.73249 | -117.18014 | 18 ft | 15 kts | 78° |
| 2026-05-04 20:13 | 32.73318 | -117.17965 | 21 ft | 10 kts | 14° |
| 2026-05-04 20:13 | 32.73368 | -117.17934 | 22 ft | 9 kts | 69° |
| 2026-05-04 20:13 | 32.73365 | -117.17851 | 20 ft | 11 kts | 128° |
| 2026-05-04 20:14 | 32.73336 | -117.17796 | 19 ft | 3 kts | 163° |
| 2026-05-04 20:14 | 32.73326 | -117.17795 | 19 ft | 4 kts | 180° |
| 2026-05-04 20:14 | 32.73324 | -117.17795 | 19 ft | 0 kts | 183° |